Time;durP1;ratioP1;P1;durP2;ratioP2;P2;SDS_P1;SDS_P2;PMS_P1;PMS_P2;Temp;Humidity;BMP_temperature;BMP_pressure;BME280_temperature;BME280_humidity;BME280_pressure;Samples;Min_cycle;Max_cycle;Signal;HPM_P1;HPM_P2
2023/05/28 00:01:03;;;;;;;;;;;17.10;78.00;;;16.75;100.00;62537.16;4935822;29;19922;-85
2023/05/28 00:03:32;;;;;;;;;;;17.10;78.00;;;187.61;100.00;62537.16;4954335;29;19929;-85
2023/05/28 00:06:00;;;;;;;;;;;17.10;78.10;;;-151.14;100.00;62537.16;4938738;29;20237;-85
2023/05/28 00:08:29;;;;;;;;;;;17.10;78.00;;;-151.14;100.00;62537.16;4954881;29;19928;-86
2023/05/28 00:10:59;;;;;;;;;;;17.10;78.00;;;-151.14;100.00;62537.16;4938365;29;20241;-85
2023/05/28 00:13:28;;;;;;;;;;;17.10;78.80;;;-151.14;100.00;62537.16;4954112;29;20115;-85
2023/05/28 00:15:56;;;;;;;;;;;17.10;77.90;;;-151.14;100.00;62537.16;4938384;29;19923;-86
2023/05/28 00:18:24;;;;;;;;;;;17.10;78.00;;;-151.14;100.00;62537.16;4966803;28;19923;-86
2023/05/28 00:20:52;;;;;;;;;;;17.10;77.90;;;-151.14;100.00;62537.16;4935370;29;20146;-85
2023/05/28 00:23:20;;;;;;;;;;;17.10;78.00;;;-151.14;100.00;62537.16;4919264;29;19923;-85
2023/05/28 00:25:51;;;;;;;;;;;17.10;77.80;;;-151.14;100.00;62537.16;4935066;29;19922;-85
2023/05/28 00:28:19;;;;;;;;;;;17.10;77.90;;;-151.14;100.00;62537.16;4919014;29;19929;-86
2023/05/28 00:30:47;;;;;;;;;;;17.10;77.90;;;-151.14;100.00;62537.16;4918831;29;19929;-85
2023/05/28 00:33:15;;;;;;;;;;;17.10;77.80;;;102.80;100.00;62537.16;4934962;29;20211;-85
2023/05/28 00:35:43;;;;;;;;;;;17.10;77.80;;;-151.14;100.00;62537.16;4935117;29;20118;-85
2023/05/28 00:38:11;;;;;;;;;;;17.10;78.60;;;-151.14;100.00;62537.16;4918852;29;20129;-85
2023/05/28 00:40:44;;;;;;;;;;;17.10;77.70;;;-151.14;100.00;62537.16;4935545;29;19927;-86
2023/05/28 00:43:15;;;;;;;;;;;17.20;77.60;;;-151.14;100.00;62537.16;4950553;29;19923;-85
2023/05/28 00:45:43;;;;;;;;;;;17.20;77.50;;;-151.14;100.00;62537.16;4917902;29;19929;-85
2023/05/28 00:48:11;;;;;;;;;;;17.10;77.50;;;-151.14;100.00;62537.16;4934676;29;19923;-85
2023/05/28 00:50:39;;;;;;;;;;;17.10;77.50;;;-151.14;100.00;62537.16;4934425;29;19923;-85
2023/05/28 00:53:07;;;;;;;;;;;17.10;77.50;;;18.08;100.00;62537.16;4934618;29;20237;-85
2023/05/28 00:55:35;;;;;;;;;;;17.10;77.40;;;-151.14;100.00;62537.16;4935712;29;19929;-85
2023/05/28 00:58:05;;;;;;;;;;;17.10;77.30;;;-151.14;100.00;62537.16;4918768;29;19923;-85
2023/05/28 01:00:35;;;;;;;;;;;17.10;77.40;;;-151.14;100.00;62537.16;4933916;29;19923;-86
2023/05/28 01:03:03;;;;;;;;;;;17.10;77.50;;;16.25;100.00;62537.16;4966512;28;19930;-85
2023/05/28 01:05:34;;;;;;;;;;;17.10;77.40;;;-151.14;100.00;62537.16;4934617;29;19923;-85
2023/05/28 01:08:02;;;;;;;;;;;17.10;77.40;;;18.08;100.00;62537.16;4918597;29;19923;-85
2023/05/28 01:10:30;;;;;;;;;;;17.10;77.50;;;-151.14;100.00;62537.16;4933763;29;19923;-85
2023/05/28 01:12:58;;;;;;;;;;;17.10;77.50;;;16.26;100.00;62537.16;4966224;28;19927;-85
2023/05/28 01:15:27;;;;;;;;;;;17.10;77.40;;;-151.14;100.00;62537.16;4918366;29;19923;-85
2023/05/28 01:17:58;;;;;;;;;;;17.10;77.50;;;18.08;100.00;62537.16;4966337;28;19929;-85
2023/05/28 01:20:27;;;;;;;;;;;17.10;78.40;;;-151.14;100.00;62537.16;4933734;29;19923;-85
2023/05/28 01:22:59;;;;;;;;;;;17.10;77.50;;;-151.14;100.00;62537.16;4918338;29;19923;-86
2023/05/28 01:25:32;;;;;;;;;;;17.10;77.50;;;18.08;100.00;62537.16;4950232;29;20122;-84
2023/05/28 01:28:01;;;;;;;;;;;17.10;77.50;;;16.75;100.00;62537.16;4935198;29;19929;-85
2023/05/28 01:30:32;;;;;;;;;;;17.10;77.50;;;-151.14;100.00;62537.16;4949460;28;20100;-86
2023/05/28 01:33:00;;;;;;;;;;;17.10;77.40;;;-151.14;100.00;62537.16;4918264;29;19922;-84
2023/05/28 01:35:28;;;;;;;;;;;17.10;77.40;;;-151.14;100.00;62537.16;4930388;29;19922;-86
2023/05/28 01:37:58;;;;;;;;;;;17.10;77.30;;;-151.14;100.00;62537.16;4937171;29;19922;-85
2023/05/28 01:40:27;;;;;;;;;;;17.10;77.40;;;-151.14;100.00;62537.16;4968262;28;19945;-86
2023/05/28 01:42:56;;;;;;;;;;;17.10;77.40;;;-151.14;100.00;62537.16;4937219;29;19928;-85
2023/05/28 01:45:25;;;;;;;;;;;17.10;77.50;;;16.75;100.00;62537.16;4937249;29;19979;-85
2023/05/28 01:47:53;;;;;;;;;;;17.10;77.30;;;16.75;100.00;62537.16;4953012;29;19929;-85
2023/05/28 01:50:21;;;;;;;;;;;17.10;78.10;;;-151.14;100.00;62537.16;4936331;29;19922;-85
2023/05/28 01:52:49;;;;;;;;;;;17.10;77.30;;;-151.14;100.00;62537.16;4952844;29;19922;-86
2023/05/28 01:55:17;;;;;;;;;;;17.10;77.20;;;-151.14;100.00;62537.16;4936585;29;19930;-86
2023/05/28 01:57:47;;;;;;;;;;;17.00;77.20;;;-151.14;100.00;62537.16;4936586;29;19929;-85
2023/05/28 02:00:16;;;;;;;;;;;17.00;78.00;;;;;;4936263;29;20212;-85
2023/05/28 02:02:44;;;;;;;;;;;17.00;77.20;;;-151.14;100.00;62537.16;4953388;29;19929;-85
2023/05/28 02:05:17;;;;;;;;;;;17.00;77.20;;;-151.14;100.00;62537.16;4951725;29;19929;-85
2023/05/28 02:07:45;;;;;;;;;;;17.00;77.20;;;-151.14;100.00;62537.16;4936698;29;19922;-85
2023/05/28 02:10:13;;;;;;;;;;;17.00;77.20;;;16.75;100.00;62537.16;4936046;29;20126;-85
2023/05/28 02:12:41;;;;;;;;;;;17.00;77.20;;;16.75;100.00;62537.16;4952879;29;19929;-85
2023/05/28 02:15:11;;;;;;;;;;;17.00;77.20;;;-151.14;100.00;62537.16;4952434;29;19929;-85
2023/05/28 02:17:40;;;;;;;;;;;17.00;77.20;;;-151.14;100.00;62537.16;4952575;29;19945;-85
2023/05/28 02:20:11;;;;;;;;;;;17.00;77.30;;;-151.14;100.00;62537.16;4935939;29;20095;-85
2023/05/28 02:22:39;;;;;;;;;;;17.00;77.20;;;187.61;100.00;62537.16;4936722;29;20125;-85
2023/05/28 02:25:08;;;;;;;;;;;17.00;78.10;;;-151.14;100.00;62537.16;4936303;29;19922;-85
2023/05/28 02:27:36;;;;;;;;;;;17.00;77.20;;;-151.14;100.00;62537.16;4936606;29;19923;-85
2023/05/28 02:30:05;;;;;;;;;;;17.00;77.30;;;;;;4951631;29;19923;-85
2023/05/28 02:32:33;;;;;;;;;;;17.00;77.30;;;-151.14;100.00;62537.16;4936682;29;19923;-86
2023/05/28 02:35:03;;;;;;;;;;;17.00;77.30;;;18.08;100.00;62537.16;4936218;29;20100;-85
2023/05/28 02:37:32;;;;;;;;;;;17.00;77.20;;;187.61;100.00;62537.16;4936519;29;19923;-86
2023/05/28 02:40:00;;;;;;;;;;;17.00;77.30;;;-151.14;100.00;62537.16;4935653;29;19929;-85
2023/05/28 02:42:28;;;;;;;;;;;17.00;77.20;;;-151.14;100.00;62537.16;4936812;29;19929;-85
2023/05/28 02:44:56;;;;;;;;;;;17.00;77.10;;;-151.14;100.00;62537.16;4936333;29;19928;-85
2023/05/28 02:47:25;;;;;;;;;;;17.00;77.10;;;102.80;100.00;62537.16;4936384;29;19976;-85
2023/05/28 02:49:53;;;;;;;;;;;17.00;77.00;;;-151.14;100.00;62537.16;4935654;29;19929;-85
2023/05/28 02:52:23;;;;;;;;;;;17.00;77.00;;;;;;4936195;29;19922;-85
2023/05/28 02:54:51;;;;;;;;;;;17.00;77.00;;;-151.14;100.00;62537.16;4952044;29;19923;-85
2023/05/28 02:57:19;;;;;;;;;;;17.00;77.10;;;-151.14;100.00;62537.16;4952161;29;19930;-85
2023/05/28 02:59:47;;;;;;;;;;;17.00;77.10;;;-151.14;100.00;62537.16;4951447;29;20290;-85
2023/05/28 03:02:15;;;;;;;;;;;17.00;77.00;;;-151.14;100.00;62537.16;4936127;29;19922;-85
2023/05/28 03:04:44;;;;;;;;;;;17.00;77.00;;;-151.14;100.00;62537.16;4936035;29;19923;-85
2023/05/28 03:07:12;;;;;;;;;;;16.90;76.90;;;-151.14;100.00;62537.16;4952202;29;19922;-85
2023/05/28 03:09:42;;;;;;;;;;;16.90;76.90;;;16.75;100.00;62537.16;4954059;29;19929;-85
2023/05/28 03:12:10;;;;;;;;;;;16.90;76.80;;;-151.14;100.00;62537.16;4939367;29;20118;-85
2023/05/28 03:14:38;;;;;;;;;;;16.90;76.80;;;-151.14;100.00;62537.16;4955013;29;19969;-85
2023/05/28 03:17:06;;;;;;;;;;;16.90;76.90;;;-151.14;100.00;62537.16;4939152;29;19937;-84
2023/05/28 03:19:36;;;;;;;;;;;16.90;76.80;;;-151.14;100.00;62537.16;4938640;29;19923;-84
2023/05/28 03:22:04;;;;;;;;;;;16.90;76.90;;;18.08;100.00;62537.16;4954975;29;19923;-85
2023/05/28 03:24:39;;;;;;;;;;;16.90;76.80;;;-151.14;100.00;62537.16;4955016;29;20122;-85
2023/05/28 03:27:11;;;;;;;;;;;16.90;76.70;;;-151.14;100.00;62537.16;4954963;29;19923;-86
2023/05/28 03:29:40;;;;;;;;;;;16.90;76.80;;;-151.14;100.00;62537.16;4954380;29;19923;-85
2023/05/28 03:32:28;;;;;;;;;;;16.90;76.80;;;16.75;100.00;62537.16;4954823;29;19929;-85
2023/05/28 03:34:56;;;;;;;;;;;16.90;76.80;;;-151.14;100.00;62537.16;4954709;29;19923;-85
2023/05/28 03:37:30;;;;;;;;;;;16.90;76.80;;;-151.14;100.00;62537.16;4954706;29;19923;-85
2023/05/28 03:39:59;;;;;;;;;;;16.90;76.70;;;-151.14;100.00;62537.16;4953996;28;19929;-85
2023/05/28 03:42:29;;;;;;;;;;;16.90;76.70;;;-151.14;100.00;62537.16;4970890;28;19922;-85
2023/05/28 03:44:57;;;;;;;;;;;16.90;76.70;;;-151.14;100.00;62537.16;4954647;29;19929;-85
2023/05/28 03:47:26;;;;;;;;;;;16.90;76.80;;;-151.14;100.00;62537.16;4954768;29;19929;-85
2023/05/28 03:49:55;;;;;;;;;;;16.90;77.60;;;-151.14;100.00;62537.16;4954055;29;19929;-85
2023/05/28 03:52:23;;;;;;;;;;;16.90;76.60;;;-151.14;100.00;62537.16;4954384;29;19929;-85
2023/05/28 03:54:54;;;;;;;;;;;16.90;76.60;;;-151.14;100.00;62537.16;4938780;29;19929;-85
2023/05/28 03:57:22;;;;;;;;;;;16.90;76.60;;;-151.14;100.00;62537.16;4954303;29;19923;-85
2023/05/28 03:59:52;;;;;;;;;;;16.90;76.60;;;-151.14;100.00;62537.16;4953955;29;19926;-85
2023/05/28 04:02:20;;;;;;;;;;;16.90;76.70;;;15.98;100.00;62537.16;4954355;29;20117;-85
2023/05/28 04:04:48;;;;;;;;;;;16.80;76.70;;;15.98;100.00;62537.16;4938542;29;19923;-85
2023/05/28 04:07:16;;;;;;;;;;;16.90;76.80;;;15.98;100.00;62537.16;4954434;29;19937;-85
2023/05/28 04:09:44;;;;;;;;;;;16.90;76.80;;;15.98;100.00;62537.16;4953821;29;20211;-85
2023/05/28 04:12:13;;;;;;;;;;;16.90;76.70;;;-151.14;100.00;62537.16;4970449;28;19922;-86
2023/05/28 04:14:41;;;;;;;;;;;16.90;76.70;;;-151.14;100.00;62537.16;4954250;29;19983;-85
2023/05/28 04:17:12;;;;;;;;;;;16.90;76.70;;;-151.14;100.00;62537.16;4938238;29;19923;-85
2023/05/28 04:19:40;;;;;;;;;;;16.90;76.70;;;-151.14;100.00;62537.16;4953501;29;19929;-86
2023/05/28 04:22:09;;;;;;;;;;;16.90;76.80;;;18.08;100.00;62537.16;4970046;28;20107;-85
2023/05/28 04:24:37;;;;;;;;;;;16.90;76.80;;;-151.14;100.00;62537.16;4938418;29;20219;-85
2023/05/28 04:27:06;;;;;;;;;;;16.90;76.80;;;-151.14;100.00;62537.16;4954257;29;20118;-85
2023/05/28 04:29:34;;;;;;;;;;;16.90;76.90;;;-151.14;100.00;62537.16;4937648;29;20214;-85
2023/05/28 04:32:03;;;;;;;;;;;16.90;77.00;;;-151.14;100.00;62537.16;4953954;29;19929;-85
2023/05/28 04:34:33;;;;;;;;;;;17.00;77.10;;;-151.14;100.00;62537.16;4938105;29;19956;-85
2023/05/28 04:37:02;;;;;;;;;;;17.00;77.40;;;18.08;100.00;62537.16;4937890;29;19922;-85
2023/05/28 04:39:30;;;;;;;;;;;17.00;77.60;;;-151.14;100.00;62537.16;4937395;29;20256;-85
2023/05/28 04:41:59;;;;;;;;;;;17.00;78.00;;;-151.14;100.00;62537.16;4938173;29;19923;-85
2023/05/28 04:44:27;;;;;;;;;;;17.00;77.90;;;-151.14;100.00;62537.16;4938212;29;19922;-85
2023/05/28 04:46:58;;;;;;;;;;;17.10;78.00;;;-151.14;100.00;62537.16;4953603;29;19923;-85
2023/05/28 04:49:26;;;;;;;;;;;17.10;78.00;;;-151.14;100.00;62537.16;4953363;29;19922;-86
2023/05/28 04:51:56;;;;;;;;;;;17.10;78.20;;;-151.14;100.00;62537.16;4937535;29;19922;-85
2023/05/28 04:54:24;;;;;;;;;;;17.20;78.10;;;-151.14;100.00;62537.16;4937964;29;20252;-85
2023/05/28 04:56:52;;;;;;;;;;;17.20;77.60;;;-151.14;100.00;62537.16;4937571;29;20200;-85
2023/05/28 04:59:20;;;;;;;;;;;17.30;77.50;;;-151.14;100.00;62537.16;4937026;29;19929;-86
2023/05/28 05:01:48;;;;;;;;;;;17.30;77.50;;;-151.14;100.00;62537.16;4953295;28;20227;-85
2023/05/28 05:04:16;;;;;;;;;;;17.40;77.20;;;-151.14;100.00;62537.16;4969790;28;19929;-85
2023/05/28 05:06:44;;;;;;;;;;;17.40;76.90;;;-151.14;100.00;62537.16;4969462;28;19931;-85
2023/05/28 05:09:14;;;;;;;;;;;17.40;76.80;;;18.08;100.00;62537.16;4952978;29;20241;-85
2023/05/28 05:11:42;;;;;;;;;;;17.50;76.70;;;-151.14;100.00;62537.16;4953278;29;19929;-85
2023/05/28 05:14:10;;;;;;;;;;;17.50;76.60;;;-151.14;100.00;62537.16;4953163;29;19929;-84
2023/05/28 05:16:38;;;;;;;;;;;17.60;76.40;;;-151.14;100.00;62537.16;4937319;29;19923;-84
2023/05/28 05:19:06;;;;;;;;;;;17.60;76.40;;;-151.14;100.00;62537.16;4952800;29;19923;-85
2023/05/28 05:21:35;;;;;;;;;;;17.60;76.30;;;-151.14;100.00;62537.16;4953003;29;19931;-85
2023/05/28 05:24:03;;;;;;;;;;;17.60;76.20;;;-151.14;100.00;62537.16;4953292;29;19922;-84
2023/05/28 05:26:33;;;;;;;;;;;17.60;76.00;;;-151.14;100.00;62537.16;4953020;29;19931;-85
2023/05/28 05:29:01;;;;;;;;;;;17.60;76.10;;;18.08;100.00;62537.16;4936702;29;19922;-85
2023/05/28 05:31:30;;;;;;;;;;;17.70;76.10;;;-151.14;100.00;62537.16;4952272;28;19923;-84
2023/05/28 05:33:58;;;;;;;;;;;17.70;76.00;;;-151.14;100.00;62537.16;4953135;29;19926;-84
2023/05/28 05:36:39;;;;;;;;;;;17.70;76.00;;;-151.14;100.00;62537.16;4953987;29;19928;-85
2023/05/28 05:39:26;;;;;;;;;;;17.70;75.90;;;-151.14;100.00;62537.16;4936529;29;20234;-84
2023/05/28 05:42:15;;;;;;;;;;;17.70;75.80;;;-151.14;100.00;62537.16;4952969;29;19923;-84
2023/05/28 05:44:46;;;;;;;;;;;17.70;75.60;;;-151.14;100.00;62537.16;4953105;29;19923;-84
2023/05/28 05:47:15;;;;;;;;;;;17.80;75.50;;;-151.14;100.00;62537.16;4936879;29;19923;-84
2023/05/28 05:49:44;;;;;;;;;;;17.80;75.40;;;-151.14;100.00;62537.16;4936257;29;19929;-83
2023/05/28 05:52:14;;;;;;;;;;;17.80;75.40;;;-151.14;100.00;62537.16;4952707;29;19922;-84
2023/05/28 05:54:45;;;;;;;;;;;17.90;75.50;;;-151.14;100.00;62537.16;4949751;29;19922;-84
2023/05/28 05:57:17;;;;;;;;;;;17.90;75.40;;;-151.14;100.00;62537.16;4949430;29;19929;-83
2023/05/28 05:59:45;;;;;;;;;;;18.00;75.20;;;-151.14;100.00;62537.16;4949135;29;19923;-83
2023/05/28 06:02:15;;;;;;;;;;;18.00;75.00;;;-151.14;100.00;62537.16;4917713;29;19929;-83
2023/05/28 06:04:43;;;;;;;;;;;18.00;74.80;;;-151.14;100.00;62537.16;4933723;29;19923;-83
2023/05/28 06:07:45;;;;;;;;;;;18.10;74.80;;;-151.14;100.00;62537.16;4922791;29;19929;-83
2023/05/28 06:10:22;;;;;;;;;;;18.10;74.80;;;-151.14;100.00;62537.16;4917042;29;19929;-83
2023/05/28 06:12:52;;;;;;;;;;;18.20;74.50;;;-151.14;100.00;62537.16;4949311;29;19923;-83
2023/05/28 06:15:21;;;;;;;;;;;18.20;74.50;;;18.12;100.00;62537.16;4917663;29;19929;-83
2023/05/28 06:17:49;;;;;;;;;;;18.20;75.10;;;-151.14;100.00;62537.16;4917432;29;19923;-83
2023/05/28 06:20:19;;;;;;;;;;;18.20;74.10;;;-151.14;100.00;62537.16;4933017;29;20222;-84
2023/05/28 06:22:47;;;;;;;;;;;18.30;74.10;;;-151.14;100.00;62537.16;4933142;29;20118;-83
2023/05/28 06:25:16;;;;;;;;;;;18.30;73.90;;;18.08;100.00;62537.16;4917582;29;20241;-84
2023/05/28 06:27:45;;;;;;;;;;;18.30;73.90;;;-151.14;100.00;62537.16;4917502;29;19923;-83
2023/05/28 06:30:16;;;;;;;;;;;18.30;73.70;;;-151.14;100.00;62537.16;4916774;29;20122;-84
2023/05/28 06:32:44;;;;;;;;;;;18.40;73.60;;;-151.14;100.00;62537.16;4949035;29;20215;-83
2023/05/28 06:35:13;;;;;;;;;;;18.40;73.40;;;-151.14;100.00;62537.16;4933219;29;19929;-84
2023/05/28 06:37:41;;;;;;;;;;;18.40;73.20;;;-151.14;100.00;62537.16;4948900;29;20215;-84
2023/05/28 06:40:10;;;;;;;;;;;18.40;73.20;;;-151.14;100.00;62537.16;4916825;29;19923;-84
2023/05/28 06:42:38;;;;;;;;;;;18.40;72.90;;;-151.14;100.00;62537.16;4918751;29;19930;-83
2023/05/28 06:45:17;;;;;;;;;;;18.40;73.60;;;18.08;100.00;62537.16;4936637;29;20092;-84
2023/05/28 06:47:46;;;;;;;;;;;18.50;72.70;;;-151.14;100.00;62537.16;4936519;29;19923;-83
2023/05/28 06:50:14;;;;;;;;;;;18.50;72.50;;;-151.14;100.00;62537.16;4935844;29;19933;-83
2023/05/28 06:52:43;;;;;;;;;;;18.50;72.30;;;17.74;100.00;62537.16;4936534;29;19945;-83
2023/05/28 06:55:12;;;;;;;;;;;18.50;71.70;;;-151.14;100.00;62537.16;4952275;29;19923;-83
2023/05/28 06:57:50;;;;;;;;;;;18.50;71.30;;;-151.14;100.00;62537.16;4920640;29;19933;-84
2023/05/28 07:00:35;;;;;;;;;;;18.60;71.20;;;18.12;100.00;62537.16;4951391;29;19923;-83
2023/05/28 07:03:20;;;;;;;;;;;18.60;71.10;;;-151.14;100.00;62537.16;4936054;29;19929;-84
2023/05/28 07:06:03;;;;;;;;;;;18.60;71.00;;;-151.14;100.00;62537.16;4954940;29;19932;-83
2023/05/28 07:08:32;;;;;;;;;;;18.60;70.80;;;-151.14;100.00;62537.16;4954504;29;19923;-83
2023/05/28 07:11:01;;;;;;;;;;;18.60;71.10;;;-151.14;100.00;62537.16;4939249;29;19923;-83
2023/05/28 07:13:29;;;;;;;;;;;18.50;71.20;;;-151.14;100.00;62537.16;4955055;29;19933;-83
2023/05/28 07:15:59;;;;;;;;;;;18.50;71.10;;;-151.14;100.00;62537.16;4971487;28;19923;-84
2023/05/28 07:18:27;;;;;;;;;;;18.50;71.20;;;-151.14;100.00;62537.16;4954191;29;19922;-84
2023/05/28 07:20:56;;;;;;;;;;;18.50;70.60;;;-151.14;100.00;62537.16;4955027;29;19929;-83
2023/05/28 07:23:33;;;;;;;;;;;18.50;71.00;;;-151.14;100.00;62537.16;4954967;29;19929;-83
2023/05/28 07:26:01;;;;;;;;;;;18.40;71.20;;;-151.14;100.00;62537.16;4939040;29;19929;-84
2023/05/28 07:28:30;;;;;;;;;;;18.50;71.00;;;-151.14;100.00;62537.16;4970467;28;19929;-84
2023/05/28 07:30:59;;;;;;;;;;;18.50;71.30;;;-151.14;100.00;62537.16;4954797;28;19955;-84
2023/05/28 07:33:27;;;;;;;;;;;18.50;70.50;;;-151.14;100.00;62537.16;4955091;29;19922;-83
2023/05/28 07:35:55;;;;;;;;;;;18.50;71.10;;;-151.14;100.00;62537.16;4954740;29;19922;-83
2023/05/28 07:38:25;;;;;;;;;;;18.50;71.20;;;-151.14;100.00;62537.16;4938148;29;19922;-83
2023/05/28 07:40:56;;;;;;;;;;;18.50;71.00;;;-151.14;100.00;62537.16;4954703;29;19922;-85
2023/05/28 07:43:33;;;;;;;;;;;18.50;71.20;;;-151.14;100.00;62537.16;4954759;29;20214;-85
2023/05/28 07:46:07;;;;;;;;;;;18.50;71.00;;;-151.14;100.00;62537.16;4938844;29;19929;-84
2023/05/28 07:48:43;;;;;;;;;;;18.50;71.10;;;-151.14;100.00;62537.16;4954104;29;19929;-84
2023/05/28 07:51:19;;;;;;;;;;;18.60;69.80;;;-151.14;100.00;62537.16;4954666;29;19923;-84
2023/05/28 07:53:51;;;;;;;;;;;18.60;70.20;;;-151.14;100.00;62537.16;4954054;29;19923;-83
2023/05/28 07:56:22;;;;;;;;;;;18.50;70.80;;;17.78;100.00;62537.16;4954436;29;19923;-84
2023/05/28 07:58:51;;;;;;;;;;;18.60;70.70;;;-151.14;100.00;62537.16;4953732;29;19922;-83
2023/05/28 08:01:22;;;;;;;;;;;18.60;69.90;;;-151.14;100.00;62537.16;4954529;28;19923;-84
2023/05/28 08:03:51;;;;;;;;;;;18.60;69.40;;;-151.14;100.00;62537.16;4954428;29;19922;-83
2023/05/28 08:06:22;;;;;;;;;;;18.60;69.90;;;-151.14;100.00;62537.16;4954510;29;19929;-83
2023/05/28 08:08:50;;;;;;;;;;;18.60;70.30;;;-151.14;100.00;62537.16;4953597;29;19933;-83
2023/05/28 08:11:19;;;;;;;;;;;18.60;70.00;;;-151.14;100.00;62537.16;4967140;28;19922;-83
2023/05/28 08:13:47;;;;;;;;;;;18.60;69.60;;;18.09;100.00;62537.16;4919074;29;19923;-84
2023/05/28 08:16:16;;;;;;;;;;;18.60;70.00;;;-151.14;100.00;62537.16;4919327;29;20244;-83
2023/05/28 08:19:12;;;;;;;;;;;18.60;69.10;;;18.08;100.00;62537.16;4950275;29;19923;-83
2023/05/28 08:21:41;;;;;;;;;;;18.60;69.30;;;-151.14;100.00;62537.16;4943565;29;19922;-84
2023/05/28 08:24:10;;;;;;;;;;;18.60;68.80;;;17.84;100.00;62537.16;4970124;28;19922;-83
2023/05/28 08:26:38;;;;;;;;;;;18.60;69.10;;;-151.14;100.00;62537.16;4954033;29;20237;-83
2023/05/28 08:29:07;;;;;;;;;;;18.60;69.20;;;-151.14;100.00;62537.16;4953410;29;19922;-83
2023/05/28 08:31:40;;;;;;;;;;;18.60;69.10;;;-151.14;100.00;62537.16;4953939;29;19923;-83
2023/05/28 08:34:20;;;;;;;;;;;18.60;69.20;;;-151.14;100.00;62537.16;4953913;29;19922;-84
2023/05/28 08:36:50;;;;;;;;;;;18.70;69.30;;;-151.14;100.00;62537.16;4954113;28;19923;-84
2023/05/28 08:39:26;;;;;;;;;;;18.70;69.40;;;-151.14;100.00;62537.16;4937318;29;19945;-84
2023/05/28 08:41:55;;;;;;;;;;;18.70;69.20;;;-151.14;100.00;62537.16;4969787;28;19929;-84
2023/05/28 08:44:23;;;;;;;;;;;18.70;68.80;;;-151.14;100.00;62537.16;4969922;28;20213;-83
2023/05/28 08:46:51;;;;;;;;;;;18.70;68.60;;;-151.14;100.00;62537.16;4937938;29;19929;-84
2023/05/28 08:49:35;;;;;;;;;;;18.70;67.90;;;-151.14;100.00;62537.16;4953158;29;20211;-84
2023/05/28 08:52:08;;;;;;;;;;;18.70;68.10;;;-151.14;100.00;62537.16;4937604;29;19926;-84
2023/05/28 08:54:37;;;;;;;;;;;18.70;69.20;;;-151.14;100.00;62537.16;4937796;29;19922;-84
2023/05/28 08:57:05;;;;;;;;;;;18.70;68.50;;;17.85;100.00;62537.16;4953697;29;19922;-83
2023/05/28 08:59:37;;;;;;;;;;;18.70;67.40;;;-151.14;100.00;62537.16;4937023;29;19982;-83
2023/05/28 09:02:06;;;;;;;;;;;18.70;69.60;;;18.08;100.00;62537.16;4969678;28;19923;-83
2023/05/28 09:04:36;;;;;;;;;;;18.60;68.30;;;-151.14;100.00;62537.16;4937584;29;19945;-83
2023/05/28 09:07:05;;;;;;;;;;;18.60;67.70;;;-151.14;100.00;62537.16;4952421;29;19923;-83
2023/05/28 09:09:51;;;;;;;;;;;18.60;68.20;;;-151.14;100.00;62537.16;4968899;28;20211;-83
2023/05/28 09:12:21;;;;;;;;;;;18.60;68.80;;;-151.14;100.00;62537.16;4953303;28;19923;-83
2023/05/28 09:14:52;;;;;;;;;;;18.60;69.20;;;17.82;100.00;62537.16;4969274;28;19928;-83
2023/05/28 09:17:33;;;;;;;;;;;18.60;68.00;;;-151.14;100.00;62537.16;4953440;29;19923;-83
2023/05/28 09:20:10;;;;;;;;;;;18.60;68.00;;;-151.14;100.00;62537.16;4952597;28;20210;-83
2023/05/28 09:22:38;;;;;;;;;;;18.70;68.70;;;-151.14;100.00;62537.16;4937373;29;19922;-83
2023/05/28 09:25:16;;;;;;;;;;;18.60;68.90;;;60.43;100.00;62537.16;4953368;29;19922;-83
2023/05/28 09:27:54;;;;;;;;;;;18.60;69.20;;;17.81;100.00;62537.16;4937380;29;19923;-83
2023/05/28 09:30:23;;;;;;;;;;;18.60;68.30;;;-151.14;100.00;62537.16;4953536;29;19922;-83
2023/05/28 09:32:58;;;;;;;;;;;18.60;67.50;;;-151.14;100.00;62537.16;4953117;29;19922;-83
2023/05/28 09:35:29;;;;;;;;;;;18.60;68.20;;;-151.14;100.00;62537.16;4937220;29;19922;-83
2023/05/28 09:38:03;;;;;;;;;;;18.60;68.50;;;17.78;100.00;62537.16;4953427;29;19922;-83
2023/05/28 09:40:31;;;;;;;;;;;18.60;68.70;;;-151.14;100.00;62537.16;4936411;29;19929;-83
2023/05/28 09:43:00;;;;;;;;;;;18.60;68.80;;;-151.14;100.00;62537.16;4952864;29;19922;-83
2023/05/28 09:45:28;;;;;;;;;;;18.60;67.70;;;17.78;100.00;62537.16;4952864;29;19923;-83
2023/05/28 09:47:56;;;;;;;;;;;18.60;67.60;;;-151.14;100.00;62537.16;4954039;29;20237;-83
2023/05/28 09:50:24;;;;;;;;;;;18.60;68.30;;;-151.14;100.00;62537.16;4968262;28;19929;-83
2023/05/28 09:52:55;;;;;;;;;;;18.60;68.80;;;-151.14;100.00;62537.16;4968735;28;19922;-83
2023/05/28 09:55:25;;;;;;;;;;;18.60;68.40;;;-151.14;100.00;62537.16;4952707;29;19923;-82
2023/05/28 09:57:59;;;;;;;;;;;18.60;69.20;;;-151.14;100.00;62537.16;4952746;29;19922;-82
2023/05/28 10:00:32;;;;;;;;;;;18.60;69.50;;;17.69;100.00;62537.16;4953105;29;19922;-82
2023/05/28 10:03:15;;;;;;;;;;;18.50;69.80;;;-151.14;100.00;62537.16;4936904;29;19922;-83
2023/05/28 10:05:44;;;;;;;;;;;18.50;69.80;;;17.68;100.00;62537.16;4952525;29;19929;-83
2023/05/28 10:08:16;;;;;;;;;;;18.50;69.80;;;-151.14;100.00;62537.16;4936741;29;19924;-83
2023/05/28 10:10:46;;;;;;;;;;;18.60;69.60;;;-151.14;100.00;62537.16;4936174;29;19922;-83
2023/05/28 10:13:14;;;;;;;;;;;18.60;69.30;;;-151.14;100.00;62537.16;4936580;29;19922;-82
2023/05/28 10:15:42;;;;;;;;;;;18.60;69.50;;;-151.14;100.00;62537.16;4952446;29;19922;-82
2023/05/28 10:18:11;;;;;;;;;;;18.60;69.00;;;-151.14;100.00;62537.16;4952175;29;19929;-82
2023/05/28 10:20:40;;;;;;;;;;;18.60;68.40;;;-151.14;100.00;62537.16;4952171;29;20207;-82
2023/05/28 10:23:08;;;;;;;;;;;18.60;69.60;;;-151.14;100.00;62537.16;4968637;28;20118;-82
2023/05/28 10:25:37;;;;;;;;;;;18.60;69.80;;;-151.14;100.00;62537.16;4953552;29;20275;-82
2023/05/28 10:28:06;;;;;;;;;;;18.60;70.00;;;-151.14;100.00;62537.16;4936506;29;20118;-82
2023/05/28 10:30:35;;;;;;;;;;;18.60;70.00;;;-151.14;100.00;62537.16;4951678;29;19923;-82
2023/05/28 10:33:06;;;;;;;;;;;18.60;70.10;;;17.70;100.00;106994.31;4952502;29;20240;-82
2023/05/28 10:35:35;;;;;;;;;;;18.50;69.90;;;-151.14;100.00;62537.16;4952464;29;19929;-81
2023/05/28 10:38:06;;;;;;;;;;;18.50;69.90;;;-151.14;100.00;62537.16;4952430;29;20237;-82
2023/05/28 10:40:35;;;;;;;;;;;18.50;69.00;;;-151.14;100.00;62537.16;4952700;29;19929;-82
2023/05/28 10:43:04;;;;;;;;;;;18.60;68.60;;;-151.14;100.00;62537.16;4952328;29;19923;-81
2023/05/28 10:45:36;;;;;;;;;;;18.60;69.00;;;-151.14;100.00;62537.16;4968263;28;19923;-82
2023/05/28 10:48:05;;;;;;;;;;;18.60;68.80;;;17.77;100.00;62537.16;4968417;28;19923;-82
2023/05/28 10:50:33;;;;;;;;;;;18.60;68.40;;;17.81;100.00;62537.16;4952615;29;19922;-82
2023/05/28 10:53:05;;;;;;;;;;;18.60;68.70;;;-151.14;100.00;62537.16;4952427;28;20118;-82
2023/05/28 10:55:49;;;;;;;;;;;18.60;68.50;;;-151.14;100.00;62537.16;4953244;29;19929;-82
2023/05/28 10:58:28;;;;;;;;;;;18.60;69.10;;;-151.14;100.00;62537.16;4951957;28;20233;-82
2023/05/28 11:01:02;;;;;;;;;;;18.60;69.50;;;-151.14;100.00;62537.16;4936106;29;19923;-82
2023/05/28 11:03:40;;;;;;;;;;;18.60;68.60;;;-151.14;100.00;62537.16;4952276;29;20215;-82
2023/05/28 11:06:09;;;;;;;;;;;18.60;69.40;;;-151.14;100.00;62537.16;4951979;29;19922;-82
2023/05/28 11:08:44;;;;;;;;;;;18.60;68.60;;;17.73;100.00;62537.16;4951277;29;19922;-81
2023/05/28 11:11:13;;;;;;;;;;;18.60;69.00;;;-151.14;100.00;62537.16;4935845;29;19923;-81
2023/05/28 11:13:44;;;;;;;;;;;18.60;67.90;;;-151.14;100.00;62537.16;4952989;29;20206;-81